Time;durP1;ratioP1;P1;durP2;ratioP2;P2;SDS_P1;SDS_P2;PMS_P1;PMS_P2;Temp;Humidity;BMP_temperature;BMP_pressure;BME280_temperature;BME280_humidity;BME280_pressure;Samples;Min_cycle;Max_cycle;Signal;HPM_P1;HPM_P2
2022/11/09 00:02:10;;;;;;;5.22;1.10;;;23.50;99.90;;;;;;5063498;28;20203;-82
2022/11/09 00:04:41;;;;;;;3.40;0.88;;;23.50;99.90;;;;;;5062980;28;20291;-82
2022/11/09 00:07:12;;;;;;;3.50;0.68;;;23.80;99.90;;;;;;5059406;28;20196;-82
2022/11/09 00:09:45;;;;;;;2.72;0.70;;;23.90;99.90;;;;;;5063181;28;20215;-81
2022/11/09 00:12:16;;;;;;;3.40;0.70;;;23.90;99.90;;;;;;5056367;28;20272;-80
2022/11/09 00:14:47;;;;;;;2.33;0.60;;;24.00;99.90;;;;;;5066575;28;20235;-81
2022/11/09 00:17:17;;;;;;;1.42;0.40;;;23.90;99.90;;;;;;5068108;28;20219;-81
2022/11/09 00:19:48;;;;;;;2.30;0.77;;;23.80;99.90;;;;;;5054751;28;20189;-81
2022/11/09 00:22:19;;;;;;;2.60;0.65;;;23.80;99.90;;;;;;5050930;28;20203;-81
2022/11/09 00:24:52;;;;;;;2.10;0.57;;;23.90;99.90;;;;;;5077577;28;20303;-80
2022/11/09 00:27:22;;;;;;;2.38;0.38;;;23.80;99.90;;;;;;5076983;28;20220;-81
2022/11/09 00:29:53;;;;;;;2.65;0.40;;;23.70;99.90;;;;;;5073975;28;20733;-81
2022/11/09 00:32:24;;;;;;;2.35;0.50;;;23.60;99.90;;;;;;5069593;28;20774;-80
2022/11/09 00:34:56;;;;;;;2.25;0.60;;;23.50;99.90;;;;;;5058368;28;20219;-79
2022/11/09 00:37:27;;;;;;;2.58;0.57;;;23.50;99.90;;;;;;5068751;28;20762;-79
2022/11/09 00:39:59;;;;;;;2.65;0.65;;;23.60;99.90;;;;;;5073653;28;20195;-79
2022/11/09 00:42:30;;;;;;;3.83;0.50;;;23.50;99.90;;;;;;5053857;28;20210;-79
2022/11/09 00:45:02;;;;;;;0.80;0.47;;;23.40;99.90;;;;;;5077995;28;20187;-80
2022/11/09 00:47:33;;;;;;;4.03;0.60;;;23.50;99.90;;;;;;5060643;28;20245;-79
2022/11/09 00:50:04;;;;;;;3.70;0.60;;;23.60;99.90;;;;;;5054076;28;20195;-78
2022/11/09 00:52:36;;;;;;;1.60;0.50;;;23.70;99.90;;;;;;5042911;28;20224;-78
2022/11/09 00:55:09;;;;;;;3.45;0.60;;;24.10;99.90;;;;;;5044007;28;20307;-79
2022/11/09 00:57:41;;;;;;;1.70;0.40;;;24.00;99.90;;;;;;5043927;28;20199;-79
2022/11/09 01:00:12;;;;;;;1.80;0.75;;;24.00;99.90;;;;;;5043961;28;20717;-79
2022/11/09 01:02:44;;;;;;;1.58;0.60;;;23.90;99.90;;;;;;5043517;28;20203;-79
2022/11/09 01:05:16;;;;;;;2.72;0.50;;;23.90;99.90;;;;;;5041539;28;22686;-80
2022/11/09 01:07:47;;;;;;;2.05;0.55;;;23.90;99.90;;;;;;5033537;28;20216;-80
2022/11/09 01:10:20;;;;;;;2.55;0.50;;;23.90;99.90;;;;;;5037309;28;20207;-79
2022/11/09 01:12:51;;;;;;;3.55;0.50;;;24.00;99.90;;;;;;5047195;28;20855;-79
2022/11/09 01:15:22;;;;;;;2.75;0.50;;;23.90;99.90;;;;;;5047207;28;20200;-79
2022/11/09 01:17:53;;;;;;;1.35;0.40;;;23.90;99.90;;;;;;5051325;28;20195;-79
2022/11/09 01:20:25;;;;;;;1.10;0.40;;;23.90;99.90;;;;;;5041948;28;20196;-79
2022/11/09 01:22:56;;;;;;;1.27;0.47;;;24.20;99.90;;;;;;5051598;28;20245;-80
2022/11/09 01:25:29;;;;;;;1.55;0.40;;;24.20;99.90;;;;;;5048039;28;20192;-79
2022/11/09 01:28:02;;;;;;;2.70;0.47;;;24.30;99.90;;;;;;5055375;28;20202;-78
2022/11/09 01:30:35;;;;;;;2.33;0.50;;;24.30;99.90;;;;;;5040397;28;20219;-79
2022/11/09 01:33:07;;;;;;;1.23;0.40;;;24.30;99.90;;;;;;5045450;28;20241;-78
2022/11/09 01:35:39;;;;;;;2.25;0.45;;;24.30;99.90;;;;;;5046263;28;20246;-79
2022/11/09 01:38:11;;;;;;;1.00;0.40;;;24.30;99.90;;;;;;5048153;28;20250;-78
2022/11/09 01:40:43;;;;;;;2.20;0.50;;;24.40;99.90;;;;;;5086630;22;20242;-78
2022/11/09 01:43:23;;;;;;;2.03;0.50;;;24.50;99.90;;;;;;5056600;28;20212;-78
2022/11/09 01:45:58;;;;;;;1.15;0.40;;;24.70;99.90;;;;;;5047477;28;20575;-79
2022/11/09 01:48:36;;;;;;;2.22;0.40;;;24.70;99.90;;;;;;5057416;28;20195;-79
2022/11/09 01:51:10;;;;;;;2.25;0.50;;;24.80;99.90;;;;;;5051214;28;20634;-78
2022/11/09 01:53:45;;;;;;;3.47;0.75;;;24.80;99.90;;;;;;5042917;28;20234;-78
2022/11/09 01:56:19;;;;;;;1.95;0.40;;;24.80;99.90;;;;;;5046439;28;20241;-80
2022/11/09 01:58:55;;;;;;;3.58;0.60;;;24.70;99.90;;;;;;5038022;28;20314;-78
2022/11/09 02:01:26;;;;;;;1.23;0.50;;;24.30;99.90;;;;;;5036639;28;20256;-78
2022/11/09 02:04:00;;;;;;;2.20;0.60;;;24.40;99.90;;;;;;5042820;28;20364;-79
2022/11/09 02:06:32;;;;;;;3.88;0.80;;;24.70;99.90;;;;;;5038738;28;20204;-79
2022/11/09 02:09:10;;;;;;;1.73;0.40;;;24.90;99.90;;;;;;5042500;28;20294;-79
2022/11/09 02:11:44;;;;;;;1.02;0.50;;;25.20;99.90;;;;;;5042334;28;20842;-79
2022/11/09 02:14:15;;;;;;;3.30;0.60;;;25.20;99.90;;;;;;5043931;28;20262;-80
2022/11/09 02:16:48;;;;;;;1.33;0.50;;;25.30;99.90;;;;;;5043544;28;20212;-80
2022/11/09 02:19:19;;;;;;;1.75;0.50;;;25.30;99.90;;;;;;5044583;28;20271;-79
2022/11/09 02:21:51;;;;;;;0.88;0.40;;;25.20;99.90;;;;;;5044674;28;20208;-79
2022/11/09 02:24:22;;;;;;;1.80;0.50;;;25.10;99.90;;;;;;5052069;28;20325;-79
2022/11/09 02:26:54;;;;;;;1.88;0.30;;;25.00;99.90;;;;;;5042267;28;20569;-79
2022/11/09 02:29:29;;;;;;;0.70;0.30;;;25.00;99.90;;;;;;5064006;28;21510;-79
2022/11/09 02:32:03;;;;;;;1.90;0.43;;;25.10;99.90;;;;;;5044816;28;20665;-79
2022/11/09 02:34:35;;;;;;;1.55;0.40;;;25.10;99.90;;;;;;5044508;28;20211;-79
2022/11/09 02:37:08;;;;;;;1.50;0.52;;;25.20;99.90;;;;;;5040477;28;20245;-78
2022/11/09 02:39:40;;;;;;;1.77;0.55;;;25.40;99.90;;;;;;5042367;28;20223;-79
2022/11/09 02:42:13;;;;;;;2.22;0.40;;;25.40;99.90;;;;;;5063278;28;20242;-79
2022/11/09 02:44:47;;;;;;;1.75;0.38;;;25.20;99.90;;;;;;5060532;28;21485;-79
2022/11/09 02:47:18;;;;;;;1.88;0.50;;;25.20;99.90;;;;;;5062035;28;20210;-78
2022/11/09 02:49:49;;;;;;;2.15;0.40;;;25.20;99.90;;;;;;5059955;28;20829;-77
2022/11/09 02:52:22;;;;;;;2.25;0.40;;;25.20;99.90;;;;;;5063679;28;20644;-78
2022/11/09 02:54:53;;;;;;;1.10;0.40;;;25.30;99.90;;;;;;5060638;28;20219;-79
2022/11/09 02:57:24;;;;;;;8.13;0.70;;;25.30;99.90;;;;;;5058468;28;20276;-80
2022/11/09 02:59:55;;;;;;;2.45;0.60;;;25.50;99.90;;;;;;5057380;28;20201;-80
2022/11/09 03:02:26;;;;;;;1.48;0.40;;;25.60;99.90;;;;;;5058634;28;20200;-80
2022/11/09 03:04:57;;;;;;;1.23;0.43;;;25.50;99.90;;;;;;5061178;28;20199;-80
2022/11/09 03:07:31;;;;;;;1.45;0.40;;;25.50;99.90;;;;;;5058226;28;20322;-80
2022/11/09 03:10:02;;;;;;;0.60;0.22;;;25.80;99.90;;;;;;5059658;28;20246;-81
2022/11/09 03:12:33;;;;;;;1.92;0.40;;;25.90;99.90;;;;;;5061788;28;20203;-79
2022/11/09 03:15:08;;;;;;;2.78;0.30;;;26.00;99.90;;;;;;5062149;28;20223;-79
2022/11/09 03:17:39;;;;;;;1.52;0.50;;;26.00;99.90;;;;;;5061246;28;20221;-78
2022/11/09 03:20:12;;;;;;;1.23;0.28;;;26.00;99.90;;;;;;5075825;28;20187;-79
2022/11/09 03:22:45;;;;;;;1.70;0.40;;;26.00;99.90;;;;;;5059980;28;20235;-78
2022/11/09 03:25:16;;;;;;;0.60;0.30;;;26.00;99.90;;;;;;5059448;28;20215;-79
2022/11/09 03:27:48;;;;;;;1.50;0.30;;;26.00;99.90;;;;;;5063327;28;20247;-80
2022/11/09 03:30:19;;;;;;;0.93;0.32;;;26.10;99.90;;;;;;5062600;28;20647;-80
2022/11/09 03:32:50;;;;;;;2.03;0.30;;;26.00;99.90;;;;;;5067942;28;20241;-80
2022/11/09 03:35:21;;;;;;;0.60;0.20;;;25.90;99.90;;;;;;5057956;28;20242;-80
2022/11/09 03:37:54;;;;;;;1.27;0.30;;;26.00;99.90;;;;;;5057441;28;20220;-79
2022/11/09 03:40:26;;;;;;;1.85;0.20;;;26.00;99.90;;;;;;5067933;28;20723;-80
2022/11/09 03:42:57;;;;;;;2.90;0.38;;;26.10;99.20;;;;;;5070412;28;20598;-80
2022/11/09 03:45:30;;;;;;;7.03;0.30;;;25.90;97.10;;;;;;5065347;28;20199;-81
2022/11/09 03:48:03;;;;;;;0.60;0.28;;;26.00;94.90;;;;;;5067308;28;20210;-79
2022/11/09 03:50:39;;;;;;;1.50;0.30;;;26.10;95.20;;;;;;5063121;28;20226;-79
2022/11/09 03:53:12;;;;;;;1.38;0.28;;;26.10;93.70;;;;;;5066321;28;20262;-81
2022/11/09 03:55:44;;;;;;;0.40;0.30;;;26.10;94.20;;;;;;5058268;28;20634;-81
2022/11/09 03:58:15;;;;;;;1.60;0.50;;;26.30;95.70;;;;;;5059683;28;20200;-81
2022/11/09 04:00:46;;;;;;;2.05;0.40;;;26.30;94.50;;;;;;5057816;28;20225;-81
2022/11/09 04:03:17;;;;;;;1.42;0.32;;;26.50;94.30;;;;;;5059177;28;20249;-81
2022/11/09 04:05:49;;;;;;;1.30;0.30;;;26.40;90.10;;;;;;5061060;28;20222;-80
2022/11/09 04:08:22;;;;;;;1.48;0.30;;;26.50;90.40;;;;;;5063641;28;20213;-79
2022/11/09 04:10:53;;;;;;;0.60;0.30;;;26.50;85.90;;;;;;5064040;28;20943;-80
2022/11/09 04:13:25;;;;;;;0.65;0.20;;;26.60;84.00;;;;;;5066644;28;20285;-80
2022/11/09 04:15:58;;;;;;;2.58;0.40;;;26.50;82.20;;;;;;5063415;28;20258;-80
2022/11/09 04:18:32;;;;;;;0.35;0.10;;;26.60;77.00;;;;;;5063049;28;20220;-80
2022/11/09 04:21:05;;;;;;;0.45;0.20;;;26.60;72.70;;;;;;5084421;28;20238;-81
2022/11/09 04:23:39;;;;;;;1.80;0.20;;;26.80;67.00;;;;;;5079583;28;20759;-82
2022/11/09 04:26:13;;;;;;;2.50;0.32;;;27.00;66.90;;;;;;5064809;28;20228;-80
2022/11/09 04:28:44;;;;;;;0.65;0.20;;;27.10;65.80;;;;;;5063032;28;20883;-80
2022/11/09 04:31:16;;;;;;;0.93;0.22;;;27.30;66.80;;;;;;5072631;28;20283;-80
2022/11/09 04:33:51;;;;;;;0.32;0.20;;;27.40;68.40;;;;;;5073743;28;20322;-80
2022/11/09 04:36:22;;;;;;;1.92;0.20;;;27.60;67.00;;;;;;5060434;28;20200;-79
2022/11/09 04:38:55;;;;;;;1.75;0.30;;;27.60;67.70;;;;;;5059039;28;20940;-80
2022/11/09 04:41:27;;;;;;;1.55;0.40;;;27.60;68.90;;;;;;5062279;28;20227;-80
2022/11/09 04:43:58;;;;;;;0.32;0.22;;;27.60;72.70;;;;;;5058586;28;20745;-80
2022/11/09 04:46:30;;;;;;;1.30;0.40;;;27.60;73.50;;;;;;5057008;28;20253;-80
2022/11/09 04:49:01;;;;;;;0.77;0.30;;;27.60;74.20;;;;;;5058642;28;20299;-80
2022/11/09 04:51:32;;;;;;;1.08;0.30;;;27.50;74.50;;;;;;5058410;28;20214;-80
2022/11/09 04:54:05;;;;;;;1.08;0.30;;;27.60;75.00;;;;;;5059767;28;20224;-80
2022/11/09 04:56:36;;;;;;;1.23;0.25;;;27.50;77.20;;;;;;5060317;28;20210;-81
2022/11/09 04:59:07;;;;;;;1.08;0.40;;;27.60;77.50;;;;;;5059274;28;20199;-79
2022/11/09 05:01:38;;;;;;;0.32;0.20;;;27.70;75.20;;;;;;5060018;28;20195;-80
2022/11/09 05:04:10;;;;;;;2.20;0.30;;;27.70;74.60;;;;;;5056764;28;20200;-80
2022/11/09 05:06:41;;;;;;;0.88;0.35;;;27.70;76.20;;;;;;5058301;28;20207;-79
2022/11/09 05:09:15;;;;;;;1.02;0.25;;;27.70;77.20;;;;;;5060840;28;20196;-82
2022/11/09 05:11:46;;;;;;;0.98;0.30;;;27.70;75.60;;;;;;5066125;28;20209;-81
2022/11/09 05:14:17;;;;;;;2.10;0.30;;;27.90;75.70;;;;;;5064285;28;22946;-81
2022/11/09 05:16:48;;;;;;;0.73;0.20;;;27.90;74.60;;;;;;5062649;28;20229;-80
2022/11/09 05:19:19;;;;;;;1.50;0.30;;;28.10;74.50;;;;;;5061794;28;20282;-80
2022/11/09 05:21:51;;;;;;;2.70;0.40;;;28.40;74.80;;;;;;5066918;28;20221;-81
2022/11/09 05:24:22;;;;;;;1.13;0.20;;;28.60;73.20;;;;;;5067741;28;20248;-80
2022/11/09 05:26:53;;;;;;;0.75;0.20;;;28.80;70.50;;;;;;5060569;28;20290;-80
2022/11/09 05:29:28;;;;;;;1.45;0.40;;;28.70;72.10;;;;;;5088570;28;20215;-80
2022/11/09 05:31:59;;;;;;;3.30;0.25;;;28.70;69.80;;;;;;5076442;28;20217;-81
2022/11/09 05:34:30;;;;;;;2.33;0.30;;;28.70;68.80;;;;;;5077680;28;20291;-81
2022/11/09 05:37:02;;;;;;;0.85;0.20;;;28.90;69.70;;;;;;5077861;28;20299;-80
2022/11/09 05:39:35;;;;;;;0.57;0.35;;;28.90;69.50;;;;;;5064920;28;20286;-81
2022/11/09 05:42:07;;;;;;;1.20;0.40;;;28.70;69.40;;;;;;5066358;28;20236;-81
2022/11/09 05:44:38;;;;;;;0.38;0.13;;;28.80;69.60;;;;;;5060117;28;20226;-80
2022/11/09 05:47:09;;;;;;;0.63;0.30;;;28.70;71.00;;;;;;5060454;28;20404;-79
2022/11/09 05:49:40;;;;;;;1.15;0.28;;;29.20;68.60;;;;;;5067018;28;20199;-80
2022/11/09 05:52:11;;;;;;;1.48;0.30;;;29.30;69.40;;;;;;5067395;28;20209;-80
2022/11/09 05:54:44;;;;;;;0.75;0.20;;;29.50;66.80;;;;;;5059081;28;20527;-80
2022/11/09 05:57:16;;;;;;;1.38;0.50;;;29.20;69.20;;;;;;5063009;28;20785;-81
2022/11/09 05:59:48;;;;;;;0.70;0.25;;;29.40;67.40;;;;;;5063593;28;20283;-82
2022/11/09 06:02:19;;;;;;;1.17;0.30;;;29.50;68.90;;;;;;5064269;28;20205;-80
2022/11/09 06:04:51;;;;;;;1.10;0.35;;;29.40;69.70;;;;;;5062212;28;20210;-80
2022/11/09 06:07:22;;;;;;;0.98;0.40;;;29.50;70.20;;;;;;5062161;28;20200;-80
2022/11/09 06:09:55;;;;;;;2.15;0.35;;;30.00;69.30;;;;;;5064022;28;20199;-79
2022/11/09 06:12:27;;;;;;;1.23;0.47;;;29.80;66.80;;;;;;5054320;28;20226;-80
2022/11/09 06:14:58;;;;;;;0.70;0.28;;;29.70;68.80;;;;;;5058044;28;20229;-79
2022/11/09 06:17:30;;;;;;;1.45;0.35;;;29.70;69.30;;;;;;5063883;28;20203;-80
2022/11/09 06:20:01;;;;;;;1.13;0.28;;;29.70;68.20;;;;;;5058710;28;20203;-79
2022/11/09 06:22:33;;;;;;;0.52;0.30;;;30.00;66.70;;;;;;5070186;28;20191;-81
2022/11/09 06:25:06;;;;;;;0.65;0.20;;;29.80;64.90;;;;;;5059636;28;20203;-80
2022/11/09 06:27:38;;;;;;;2.20;0.38;;;30.00;64.40;;;;;;5060376;28;20279;-80
2022/11/09 06:30:09;;;;;;;1.30;0.35;;;29.80;63.40;;;;;;5069793;28;20203;-80
2022/11/09 06:32:40;;;;;;;2.70;0.50;;;29.70;64.40;;;;;;5070928;28;20413;-80
2022/11/09 06:35:12;;;;;;;1.33;0.30;;;29.70;62.70;;;;;;5083009;28;20226;-80
2022/11/09 06:37:42;;;;;;;1.15;0.40;;;30.10;62.60;;;;;;5090209;28;20206;-80
2022/11/09 06:40:19;;;;;;;0.63;0.22;;;30.40;60.10;;;;;;5090013;28;20271;-79
2022/11/09 06:42:49;;;;;;;0.57;0.38;;;30.40;58.00;;;;;;5082109;28;20201;-81
2022/11/09 06:45:21;;;;;;;0.77;0.30;;;30.70;57.00;;;;;;5082860;28;20572;-80
2022/11/09 06:47:51;;;;;;;0.68;0.20;;;31.00;55.80;;;;;;5084590;28;20195;-80
2022/11/09 06:50:23;;;;;;;2.03;0.30;;;30.70;56.10;;;;;;5081791;28;20203;-81
2022/11/09 06:52:58;;;;;;;1.95;0.38;;;30.50;56.50;;;;;;5080143;28;20196;-81
2022/11/09 06:55:31;;;;;;;1.75;0.20;;;30.10;58.20;;;;;;5089998;28;20237;-82
2022/11/09 06:58:02;;;;;;;3.45;0.50;;;30.10;59.00;;;;;;5087454;28;20187;-81
2022/11/09 07:00:34;;;;;;;1.25;0.30;;;30.50;58.60;;;;;;5090992;28;20199;-80
2022/11/09 07:03:05;;;;;;;1.25;0.50;;;30.90;57.40;;;;;;5091942;28;20200;-80
2022/11/09 07:05:39;;;;;;;0.88;0.40;;;31.10;54.30;;;;;;5089643;28;20634;-80
2022/11/09 07:08:10;;;;;;;0.77;0.45;;;30.80;54.00;;;;;;5086857;28;20271;-80
2022/11/09 07:10:43;;;;;;;2.38;0.50;;;30.60;52.30;;;;;;5079460;28;20212;-81
2022/11/09 07:13:17;;;;;;;1.10;0.57;;;30.50;53.40;;;;;;5087459;28;20293;-81
2022/11/09 07:15:54;;;;;;;2.08;0.52;;;30.40;53.30;;;;;;5072007;28;20227;-80
2022/11/09 07:18:25;;;;;;;1.23;0.50;;;30.10;55.00;;;;;;5075566;28;20198;-79
2022/11/09 07:20:56;;;;;;;0.95;0.43;;;30.20;55.10;;;;;;5074401;28;20187;-79
2022/11/09 07:23:28;;;;;;;2.08;0.40;;;29.90;54.90;;;;;;5060160;28;20192;-79
2022/11/09 07:26:01;;;;;;;0.68;0.30;;;30.00;54.50;;;;;;5062585;28;20207;-79
2022/11/09 07:28:32;;;;;;;0.90;0.30;;;29.70;55.60;;;;;;5061384;28;20203;-79
2022/11/09 07:31:04;;;;;;;0.55;0.30;;;29.30;56.70;;;;;;5061835;28;20199;-79
2022/11/09 07:33:35;;;;;;;0.85;0.30;;;29.10;57.80;;;;;;5060528;28;20653;-80
2022/11/09 07:36:07;;;;;;;0.32;0.30;;;28.60;58.50;;;;;;5058217;28;20800;-79
2022/11/09 07:38:38;;;;;;;0.95;0.30;;;28.00;58.90;;;;;;5058948;28;20808;-79
2022/11/09 07:41:12;;;;;;;0.63;0.30;;;27.50;59.70;;;;;;5067262;28;20284;-80
2022/11/09 07:43:43;;;;;;;2.42;0.38;;;27.00;61.60;;;;;;5072057;28;20207;-80
2022/11/09 07:46:14;;;;;;;1.85;0.40;;;26.70;64.00;;;;;;5068237;28;20205;-79
2022/11/09 07:48:45;;;;;;;1.10;0.40;;;26.40;66.30;;;;;;5074405;28;20554;-79
2022/11/09 07:51:16;;;;;;;0.63;0.30;;;25.90;67.00;;;;;;5085933;28;20192;-80
2022/11/09 07:53:47;;;;;;;2.10;0.22;;;25.60;69.00;;;;;;5084837;28;20213;-79
2022/11/09 07:56:20;;;;;;;1.00;0.35;;;25.30;70.20;;;;;;5089461;28;20209;-80
2022/11/09 07:58:53;;;;;;;1.60;0.50;;;25.00;70.80;;;;;;5089957;28;20195;-80
2022/11/09 08:01:25;;;;;;;1.95;0.90;;;24.70;72.70;;;;;;5090599;28;20203;-81
2022/11/09 08:03:56;;;;;;;1.67;0.50;;;24.50;75.30;;;;;;5081917;28;20195;-79
2022/11/09 08:06:27;;;;;;;4.18;0.45;;;24.30;77.70;;;;;;5087954;28;20552;-79
2022/11/09 08:09:02;;;;;;;2.70;0.52;;;24.00;81.10;;;;;;5083195;28;20665;-81
2022/11/09 08:11:35;;;;;;;0.50;0.40;;;23.90;83.40;;;;;;5086555;28;20195;-80
2022/11/09 08:14:06;;;;;;;2.20;0.63;;;23.80;84.30;;;;;;5087701;28;20195;-78
2022/11/09 08:16:38;;;;;;;1.80;0.40;;;23.50;87.00;;;;;;5091572;28;20207;-80
2022/11/09 08:19:09;;;;;;;0.93;0.30;;;23.40;88.60;;;;;;5086945;28;20697;-81
2022/11/09 08:21:40;;;;;;;1.00;0.30;;;23.30;89.60;;;;;;5086826;28;20195;-80
2022/11/09 08:24:11;;;;;;;1.17;0.40;;;23.10;91.10;;;;;;5084003;28;20247;-80
2022/11/09 08:26:44;;;;;;;1.38;0.40;;;23.10;92.30;;;;;;5064683;28;21970;-80
2022/11/09 08:29:15;;;;;;;1.60;0.63;;;23.00;93.00;;;;;;5062236;28;20203;-79
2022/11/09 08:31:47;;;;;;;1.95;0.40;;;23.00;93.00;;;;;;5061874;28;20335;-79
2022/11/09 08:34:18;;;;;;;1.42;0.35;;;22.90;93.30;;;;;;5063222;28;20235;-80
2022/11/09 08:36:49;;;;;;;1.25;0.60;;;22.90;94.60;;;;;;5062373;28;20318;-79
2022/11/09 08:39:21;;;;;;;1.10;0.30;;;22.80;95.60;;;;;;5064128;28;20199;-79
2022/11/09 08:41:55;;;;;;;1.98;0.50;;;22.70;96.20;;;;;;5066861;28;20226;-80
2022/11/09 08:44:25;;;;;;;1.05;0.50;;;22.70;96.80;;;;;;5085667;28;20206;-80
2022/11/09 08:46:57;;;;;;;0.90;0.30;;;22.70;97.50;;;;;;5069091;28;20203;-78
2022/11/09 08:49:28;;;;;;;0.95;0.38;;;22.70;97.90;;;;;;5055708;28;20206;-79
2022/11/09 08:52:00;;;;;;;1.88;0.45;;;22.60;98.30;;;;;;5060592;28;20210;-78
2022/11/09 08:54:31;;;;;;;1.00;0.30;;;22.50;98.50;;;;;;5062095;28;20207;-79
2022/11/09 08:57:04;;;;;;;0.68;0.30;;;22.50;98.70;;;;;;5058616;28;20205;-79
2022/11/09 08:59:35;;;;;;;2.25;0.40;;;22.40;99.20;;;;;;5063228;28;20199;-80
2022/11/09 09:02:07;;;;;;;0.95;0.32;;;22.30;99.80;;;;;;5064682;28;20573;-79
2022/11/09 09:04:38;;;;;;;1.25;0.40;;;22.30;99.90;;;;;;5066852;28;20569;-80
2022/11/09 09:07:09;;;;;;;1.20;0.40;;;22.30;99.90;;;;;;5061955;28;20264;-80
2022/11/09 09:09:40;;;;;;;1.00;0.40;;;22.20;99.90;;;;;;5062609;28;20199;-80
2022/11/09 09:12:14;;;;;;;4.90;0.50;;;22.20;99.90;;;;;;5059281;28;20573;-79
2022/11/09 09:14:45;;;;;;;1.27;0.50;;;22.20;99.90;;;;;;5057353;28;20230;-80
2022/11/09 09:17:16;;;;;;;1.50;0.60;;;22.20;99.90;;;;;;5060042;28;20202;-79
2022/11/09 09:19:47;;;;;;;2.92;0.70;;;22.00;99.90;;;;;;5062592;28;20292;-79
2022/11/09 09:22:18;;;;;;;2.92;0.57;;;22.10;99.90;;;;;;5065058;28;20214;-79
2022/11/09 09:24:50;;;;;;;0.30;0.30;;;22.00;99.90;;;;;;5066820;28;20188;-80
2022/11/09 09:27:23;;;;;;;2.17;0.45;;;22.00;99.90;;;;;;5056992;28;20215;-80
2022/11/09 09:29:54;;;;;;;1.08;0.40;;;22.00;99.90;;;;;;5059760;28;20206;-80
2022/11/09 09:32:29;;;;;;;0.90;0.30;;;22.00;99.90;;;;;;5063214;28;21091;-80
2022/11/09 09:35:00;;;;;;;1.27;0.40;;;21.90;99.90;;;;;;5063222;28;20234;-80
2022/11/09 09:37:35;;;;;;;0.90;0.32;;;21.90;99.90;;;;;;5061956;28;20203;-80
2022/11/09 09:40:07;;;;;;;2.03;0.30;;;21.80;99.90;;;;;;5072569;28;20217;-79
2022/11/09 09:42:46;;;;;;;2.30;0.40;;;21.90;99.90;;;;;;5061437;28;21039;-79
2022/11/09 09:45:21;;;;;;;1.60;0.32;;;21.80;99.90;;;;;;5071887;28;22278;-79
2022/11/09 09:47:59;;;;;;;1.00;0.30;;;21.70;99.90;;;;;;5070731;28;20240;-79
2022/11/09 09:50:36;;;;;;;0.88;0.40;;;21.80;99.90;;;;;;5057891;28;20222;-80
2022/11/09 09:53:25;;;;;;;1.40;0.30;;;21.80;99.90;;;;;;5076522;28;20191;-80
2022/11/09 09:56:02;;;;;;;0.85;0.47;;;21.70;99.90;;;;;;5070266;28;20227;-79
2022/11/09 09:58:40;;;;;;;1.90;0.32;;;21.70;99.90;;;;;;5064401;28;22641;-79
2022/11/09 10:01:18;;;;;;;2.15;0.28;;;21.70;99.90;;;;;;5062129;28;20199;-80
2022/11/09 10:03:49;;;;;;;2.55;0.40;;;21.70;99.90;;;;;;5064690;28;20205;-80
2022/11/09 10:06:39;;;;;;;4.10;0.40;;;21.70;99.90;;;;;;5071411;28;20200;-79
2022/11/09 10:09:21;;;;;;;1.70;0.40;;;21.60;99.90;;;;;;5064555;28;20203;-80
2022/11/09 10:12:02;;;;;;;2.03;0.30;;;21.60;99.90;;;;;;5061667;28;20699;-80
2022/11/09 10:15:04;;;;;;;1.48;0.32;;;21.60;99.90;;;;;;5056856;28;20191;-79
2022/11/09 10:17:44;;;;;;;0.47;0.20;;;21.60;99.90;;;;;;5063274;28;20200;-79
2022/11/09 10:20:28;;;;;;;2.10;0.30;;;21.50;99.90;;;;;;5062054;28;20860;-79
2022/11/09 10:23:11;;;;;;;2.20;0.40;;;21.50;99.90;;;;;;5060320;28;20758;-79
2022/11/09 10:25:45;;;;;;;0.75;0.30;;;21.50;99.90;;;;;;5063731;28;20199;-81
2022/11/09 10:28:19;;;;;;;1.85;0.40;;;21.50;99.90;;;;;;5063877;28;20198;-80
2022/11/09 10:30:53;;;;;;;0.38;0.30;;;21.50;99.90;;;;;;5063119;28;20237;-81
2022/11/09 10:33:25;;;;;;;1.65;0.50;;;21.50;99.90;;;;;;5061161;28;20203;-81
2022/11/09 10:36:04;;;;;;;2.25;0.30;;;21.40;99.90;;;;;;5061454;28;20227;-80
2022/11/09 10:38:38;;;;;;;2.53;0.40;;;21.50;99.90;;;;;;5055969;28;20294;-80
2022/11/09 10:41:18;;;;;;;2.85;0.50;;;21.30;99.90;;;;;;5064514;28;20230;-81
2022/11/09 10:43:50;;;;;;;0.55;0.30;;;21.40;99.90;;;;;;5065736;28;22038;-80
2022/11/09 10:46:23;;;;;;;1.55;0.40;;;21.30;99.90;;;;;;5067367;28;20203;-81
2022/11/09 10:48:55;;;;;;;1.02;0.30;;;21.50;99.90;;;;;;5073771;28;20200;-81
2022/11/09 10:51:40;;;;;;;2.25;0.50;;;21.40;99.90;;;;;;5072178;28;20391;-80
2022/11/09 10:54:23;;;;;;;0.68;0.30;;;21.40;99.90;;;;;;5064157;28;20912;-80
2022/11/09 10:57:01;;;;;;;2.92;0.30;;;21.30;99.90;;;;;;5060968;28;20970;-80
2022/11/09 10:59:49;;;;;;;1.75;0.30;;;21.40;99.90;;;;;;5064268;28;20207;-79
2022/11/09 11:02:49;;;;;;;1.17;0.40;;;21.30;99.90;;;;;;5062723;28;20203;-78
2022/11/09 11:05:34;;;;;;;2.33;0.40;;;21.30;99.90;;;;;;5076564;28;20227;-79
2022/11/09 11:08:27;;;;;;;0.50;0.28;;;21.30;99.90;;;;;;5091767;28;20621;-80
2022/11/09 11:11:22;;;;;;;1.45;0.45;;;21.30;99.90;;;;;;5084469;28;20680;-79
2022/11/09 11:14:06;;;;;;;2.13;0.43;;;21.30;99.90;;;;;;5063538;28;20571;-79
2022/11/09 11:16:38;;;;;;;0.45;0.30;;;21.30;99.90;;;;;;5062757;28;20233;-79
2022/11/09 11:19:32;;;;;;;1.00;0.30;;;21.20;99.90;;;;;;5075114;28;20200;-79
2022/11/09 11:22:22;;;;;;;2.15;0.47;;;21.20;99.90;;;;;;5090304;28;20240;-80
2022/11/09 11:25:24;;;;;;;0.73;0.35;;;21.20;99.90;;;;;;5089866;28;20219;-81
2022/11/09 11:28:18;;;;;;;0.68;0.30;;;21.20;99.90;;;;;;5080786;28;20198;-82
2022/11/09 11:30:53;;;;;;;1.75;0.32;;;21.20;99.90;;;;;;5088737;28;20218;-81
2022/11/09 11:33:48;;;;;;;0.93;0.47;;;21.20;99.90;;;;;;5093098;28;20226;-82
2022/11/09 11:36:26;;;;;;;1.70;0.40;;;21.10;99.90;;;;;;5080434;28;20250;-79
2022/11/09 11:39:32;;;;;;;0.77;0.30;;;21.20;99.90;;;;;;5076162;28;20188;-84
2022/11/09 11:42:20;;;;;;;0.80;0.40;;;21.20;99.90;;;;;;5081820;28;20902;-80
2022/11/09 11:45:31;;;;;;;1.85;0.30;;;21.10;99.90;;;;;;5071037;28;20203;-80
2022/11/09 11:48:22;;;;;;;2.10;0.30;;;21.10;99.90;;;;;;5088014;28;20225;-81
2022/11/09 11:50:58;;;;;;;1.40;0.20;;;21.10;99.90;;;;;;5082953;28;20192;-80
2022/11/09 11:53:54;;;;;;;2.13;0.40;;;21.10;99.90;;;;;;5072729;28;20278;-79
2022/11/09 11:56:42;;;;;;;0.70;0.30;;;21.00;99.90;;;;;;5089667;28;20806;-83
2022/11/09 11:59:55;;;;;;;1.35;0.40;;;21.00;99.90;;;;;;5083533;28;20218;-81
2022/11/09 12:02:54;;;;;;;1.13;0.40;;;21.00;99.90;;;;;;5078596;28;20199;-81
2022/11/09 12:05:42;;;;;;;1.73;0.50;;;21.00;99.90;;;;;;5072481;28;20295;-82
2022/11/09 12:08:22;;;;;;;1.65;0.40;;;21.00;99.90;;;;;;5071375;28;20200;-81
2022/11/09 12:11:07;;;;;;;1.50;0.40;;;20.90;99.90;;;;;;5066454;28;20200;-81
2022/11/09 12:13:59;;;;;;;0.43;0.22;;;21.00;99.90;;;;;;5064782;28;20204;-79
2022/11/09 12:16:41;;;;;;;1.35;0.40;;;21.00;99.90;;;;;;5066547;28;20225;-79
2022/11/09 12:19:29;;;;;;;2.22;0.50;;;21.00;99.90;;;;;;5080035;28;20703;-80
2022/11/09 12:22:07;;;;;;;0.75;0.30;;;21.00;99.90;;;;;;5098204;28;20349;-80
2022/11/09 12:24:45;;;;;;;2.05;0.32;;;21.00;99.90;;;;;;5096786;28;20244;-78
2022/11/09 12:27:53;;;;;;;2.97;0.60;;;21.00;99.90;;;;;;5105918;28;20350;-80
2022/11/09 12:30:29;;;;;;;1.70;0.40;;;21.00;99.90;;;;;;5095757;28;20286;-79
2022/11/09 12:33:06;;;;;;;1.40;0.50;;;21.00;99.90;;;;;;5094330;28;20201;-80
2022/11/09 12:35:41;;;;;;;3.92;0.50;;;21.10;99.90;;;;;;5068957;28;20218;-80
2022/11/09 12:38:17;;;;;;;1.80;0.30;;;21.00;99.90;;;;;;5069812;28;20195;-79
2022/11/09 12:40:53;;;;;;;1.05;0.30;;;21.00;99.90;;;;;;5067973;28;20240;-80
2022/11/09 12:43:32;;;;;;;2.83;0.50;;;21.10;99.90;;;;;;5077513;28;20222;-79
2022/11/09 12:46:08;;;;;;;2.65;0.50;;;21.00;99.90;;;;;;5083140;28;20197;-80
2022/11/09 12:48:40;;;;;;;1.33;0.43;;;21.10;99.90;;;;;;5091423;28;20194;-79
2022/11/09 12:51:11;;;;;;;0.77;0.35;;;21.10;99.90;;;;;;5097187;28;20195;-79
2022/11/09 12:53:42;;;;;;;2.55;0.50;;;21.10;99.90;;;;;;5088154;28;20219;-79
2022/11/09 12:56:20;;;;;;;1.92;0.40;;;21.10;99.90;;;;;;5088087;28;20246;-80
2022/11/09 12:58:51;;;;;;;0.63;0.30;;;21.10;99.90;;;;;;5087715;28;20665;-79
2022/11/09 13:01:49;;;;;;;2.20;0.40;;;21.00;99.90;;;;;;5086029;28;20207;-81
2022/11/09 13:04:21;;;;;;;1.70;0.35;;;21.00;99.90;;;;;;5085647;28;20693;-80
2022/11/09 13:07:30;;;;;;;2.33;0.60;;;21.00;99.90;;;;;;5088947;28;20195;-80
2022/11/09 13:10:03;;;;;;;3.03;0.80;;;21.00;99.90;;;;;;5087517;28;20195;-81
2022/11/09 13:12:42;;;;;;;1.70;0.60;;;21.00;99.90;;;;;;5085135;28;20238;-80
2022/11/09 13:15:27;;;;;;;3.22;0.55;;;21.00;99.90;;;;;;5072704;28;20199;-79
2022/11/09 13:18:06;;;;;;;3.08;0.68;;;21.00;99.90;;;;;;5089089;28;20207;-78
2022/11/09 13:20:51;;;;;;;2.60;0.73;;;21.00;99.90;;;;;;5090701;28;20217;-80
2022/11/09 13:23:37;;;;;;;2.45;0.57;;;21.00;99.90;;;;;;5085910;28;20198;-80
2022/11/09 13:26:22;;;;;;;3.45;0.43;;;21.00;99.90;;;;;;5080781;28;20214;-81
2022/11/09 13:29:11;;;;;;;2.03;0.40;;;21.00;99.90;;;;;;5087317;28;20286;-80